createdAt,value
2022-11-10T00:00:41.269Z,3.43
2022-11-10T00:03:11.115Z,3.60
2022-11-10T00:05:40.594Z,3.30
2022-11-10T00:08:11.313Z,2.90
2022-11-10T00:10:55.110Z,3.73
2022-11-10T00:13:25.201Z,2.90
2022-11-10T00:16:11.287Z,3.00
2022-11-10T00:18:39.392Z,3.57
2022-11-10T00:21:09.301Z,3.93
2022-11-10T00:23:38.386Z,4.03
2022-11-10T00:26:12.967Z,4.20
2022-11-10T00:28:43.074Z,3.83
2022-11-10T00:31:11.897Z,4.37
2022-11-10T00:33:45.551Z,4.63
2022-11-10T00:36:13.682Z,4.63
2022-11-10T00:38:41.925Z,4.10
2022-11-10T00:41:09.988Z,4.40
2022-11-10T00:43:38.292Z,3.93
2022-11-10T00:46:08.141Z,3.77
2022-11-10T00:48:36.685Z,4.10
2022-11-10T00:51:04.853Z,3.80
2022-11-10T00:53:33.412Z,4.50
2022-11-10T00:56:01.583Z,4.40
2022-11-10T00:58:30.059Z,4.10
2022-11-10T01:01:02.451Z,3.57
2022-11-10T01:03:32.578Z,3.40
2022-11-10T01:06:05.829Z,3.07
2022-11-10T01:08:34.032Z,3.77
2022-11-10T01:11:05.858Z,4.27
2022-11-10T01:13:34.858Z,3.70
2022-11-10T01:16:05.672Z,4.17
2022-11-10T01:18:35.888Z,2.80
2022-11-10T01:21:04.893Z,2.53
2022-11-10T01:23:33.298Z,2.70
2022-11-10T01:26:03.113Z,2.43
2022-11-10T01:28:32.772Z,2.30
2022-11-10T01:31:01.278Z,2.40
2022-11-10T01:33:30.348Z,1.90
2022-11-10T01:36:00.204Z,2.40
2022-11-10T01:38:29.350Z,2.67
2022-11-10T01:40:58.267Z,2.37
2022-11-10T01:43:27.034Z,2.43
2022-11-10T01:45:55.696Z,2.60
2022-11-10T01:48:31.740Z,2.47
2022-11-10T01:51:03.856Z,2.47
2022-11-10T01:53:36.304Z,2.50
2022-11-10T01:56:05.546Z,2.20
2022-11-10T01:58:40.342Z,2.83
2022-11-10T02:01:08.956Z,2.37
2022-11-10T02:03:42.932Z,2.60
2022-11-10T02:06:12.702Z,2.10
2022-11-10T02:08:42.457Z,2.47
2022-11-10T02:11:11.010Z,2.10
2022-11-10T02:13:39.477Z,2.70
2022-11-10T02:16:08.399Z,2.20
2022-11-10T02:18:36.756Z,2.60
2022-11-10T02:21:06.960Z,2.40
2022-11-10T02:23:53.983Z,2.67
2022-11-10T02:26:25.702Z,2.40
2022-11-10T02:28:53.900Z,2.30
2022-11-10T02:31:22.110Z,2.93
2022-11-10T02:33:50.273Z,3.23
2022-11-10T02:36:19.813Z,2.87
2022-11-10T02:38:47.998Z,3.27
2022-11-10T02:41:16.143Z,2.60
2022-11-10T02:43:44.865Z,2.97
2022-11-10T02:46:13.140Z,3.53
2022-11-10T02:48:41.261Z,2.67
2022-11-10T02:51:09.808Z,2.80
2022-11-10T02:53:39.341Z,3.20
2022-11-10T02:56:08.077Z,3.23
2022-11-10T02:58:36.661Z,3.20
2022-11-10T03:01:07.365Z,2.63
2022-11-10T03:03:35.859Z,3.03
2022-11-10T03:06:04.279Z,3.00
2022-11-10T03:08:32.463Z,2.67
2022-11-10T03:11:02.138Z,2.30
2022-11-10T03:13:45.420Z,2.97
2022-11-10T03:16:19.432Z,2.63
2022-11-10T03:18:47.487Z,2.47
2022-11-10T03:21:15.643Z,2.93
2022-11-10T03:23:44.185Z,2.60
2022-11-10T03:26:14.448Z,2.43
2022-11-10T03:28:42.500Z,2.60
2022-11-10T03:31:10.648Z,2.70
2022-11-10T03:33:38.993Z,2.70
2022-11-10T03:36:07.578Z,2.87
2022-11-10T03:38:35.855Z,2.87
2022-11-10T03:41:18.772Z,2.80
2022-11-10T03:43:49.339Z,2.50
2022-11-10T03:46:18.027Z,2.40
2022-11-10T03:48:51.830Z,2.47
2022-11-10T03:51:21.567Z,4.20
2022-11-10T03:53:49.794Z,3.00
2022-11-10T03:56:17.985Z,2.87
2022-11-10T03:58:46.254Z,2.90
2022-11-10T04:01:15.759Z,3.37
2022-11-10T04:03:48.789Z,2.53
2022-11-10T04:06:35.936Z,3.30
2022-11-10T04:09:04.443Z,3.20
2022-11-10T04:11:50.934Z,3.27
2022-11-10T04:14:36.927Z,2.90
2022-11-10T04:17:07.024Z,2.33
2022-11-10T04:19:35.390Z,2.47
2022-11-10T04:22:03.499Z,2.30
2022-11-10T04:24:31.976Z,2.70
2022-11-10T04:27:00.015Z,2.50
2022-11-10T04:29:28.120Z,2.73
2022-11-10T04:31:56.479Z,3.10
2022-11-10T04:34:26.463Z,3.07
2022-11-10T04:36:54.579Z,3.50
2022-11-10T04:39:22.993Z,2.63
2022-11-10T04:41:50.980Z,2.83
2022-11-10T04:44:19.202Z,2.40
2022-11-10T04:46:47.420Z,3.13
2022-11-10T04:49:15.527Z,2.67
2022-11-10T04:51:45.029Z,2.70
2022-11-10T04:54:13.564Z,2.50
2022-11-10T04:56:41.583Z,2.50
2022-11-10T04:59:09.670Z,2.80
2022-11-10T05:01:38.112Z,3.00
2022-11-10T05:04:06.905Z,2.80
2022-11-10T05:06:35.066Z,2.87
2022-11-10T05:09:05.180Z,2.70
2022-11-10T05:11:33.387Z,2.83
2022-11-10T05:14:01.594Z,2.50
2022-11-10T05:16:29.848Z,2.80
2022-11-10T05:18:58.424Z,3.17
2022-11-10T05:21:26.567Z,2.83
2022-11-10T05:23:54.855Z,3.23
2022-11-10T05:26:24.372Z,2.60
2022-11-10T05:28:52.441Z,2.80
2022-11-10T05:31:20.685Z,3.10
2022-11-10T05:33:48.848Z,2.90
2022-11-10T05:36:16.918Z,3.00
2022-11-10T05:38:45.243Z,3.37
2022-11-10T05:41:13.443Z,3.00
2022-11-10T05:43:42.849Z,2.60
2022-11-10T05:46:11.176Z,3.30
2022-11-10T05:48:39.268Z,2.80
2022-11-10T05:51:08.403Z,2.90
2022-11-10T05:53:37.218Z,2.77
2022-11-10T05:56:05.757Z,3.13
2022-11-10T05:58:34.384Z,2.87
2022-11-10T06:01:04.135Z,3.43
2022-11-10T06:03:32.298Z,4.20
2022-11-10T06:06:00.788Z,3.20
2022-11-10T06:08:29.093Z,2.90
2022-11-10T06:10:57.249Z,2.30
2022-11-10T06:13:25.647Z,2.70
2022-11-10T06:15:54.104Z,3.47
2022-11-10T06:18:23.619Z,3.03
2022-11-10T06:20:51.701Z,2.73
2022-11-10T06:23:20.280Z,4.30
2022-11-10T06:25:48.536Z,2.47
2022-11-10T06:28:17.364Z,3.03
2022-11-10T06:30:45.625Z,2.70
2022-11-10T06:33:13.850Z,3.67
2022-11-10T06:35:43.329Z,2.67
2022-11-10T06:38:12.862Z,2.70
2022-11-10T06:40:41.075Z,2.80
2022-11-10T06:43:09.313Z,3.00
2022-11-10T06:45:40.897Z,2.70
2022-11-10T06:48:12.422Z,3.17
2022-11-10T06:50:40.822Z,3.80
2022-11-10T06:53:11.146Z,2.60
2022-11-10T06:55:39.505Z,2.90
2022-11-10T06:58:08.147Z,2.50
2022-11-10T07:00:37.127Z,3.07
2022-11-10T07:03:08.269Z,3.17
2022-11-10T07:05:38.210Z,3.63
2022-11-10T07:08:13.730Z,3.40
2022-11-10T07:10:42.092Z,2.50
2022-11-10T07:13:11.636Z,3.40
2022-11-10T07:15:39.703Z,3.40
2022-11-10T07:18:08.428Z,3.50
2022-11-10T07:20:37.091Z,2.77
2022-11-10T07:23:07.177Z,2.87
2022-11-10T07:25:38.393Z,2.87
2022-11-10T07:28:10.541Z,3.70
2022-11-10T07:30:41.536Z,3.03
2022-11-10T07:33:12.946Z,3.20
2022-11-10T07:35:41.190Z,3.70
2022-11-10T07:38:10.780Z,3.00
2022-11-10T07:40:40.301Z,2.87
2022-11-10T07:43:08.778Z,3.00
2022-11-10T07:45:37.093Z,3.33
2022-11-10T07:48:07.382Z,3.23
2022-11-10T07:50:35.873Z,2.83
2022-11-10T07:53:06.096Z,2.93
2022-11-10T07:55:35.191Z,2.80
2022-11-10T07:58:04.952Z,3.07
2022-11-10T08:00:33.665Z,3.70
2022-11-10T08:03:06.353Z,3.23
2022-11-10T08:05:35.724Z,2.87
2022-11-10T08:08:04.746Z,3.50
2022-11-10T08:10:34.196Z,3.70
2022-11-10T08:13:07.804Z,3.30
2022-11-10T08:15:37.188Z,3.67
2022-11-10T08:18:07.472Z,2.87
2022-11-10T08:20:36.594Z,3.47
2022-11-10T08:23:07.863Z,2.87
2022-11-10T08:25:38.048Z,3.03
2022-11-10T08:28:10.189Z,2.87
2022-11-10T08:30:40.413Z,3.10
2022-11-10T08:33:10.737Z,3.17
2022-11-10T08:35:40.664Z,2.80
2022-11-10T08:38:10.393Z,3.53
2022-11-10T08:40:38.663Z,3.43
2022-11-10T08:43:10.000Z,2.83
2022-11-10T08:45:39.645Z,2.77
2022-11-10T08:48:09.576Z,3.07
2022-11-10T08:50:38.398Z,3.00
2022-11-10T08:53:09.157Z,3.13
2022-11-10T08:55:37.492Z,2.70
2022-11-10T08:58:07.947Z,2.63
2022-11-10T09:00:38.019Z,2.57
2022-11-10T09:03:09.353Z,2.60
2022-11-10T09:05:38.414Z,2.90
2022-11-10T09:08:07.080Z,2.60
2022-11-10T09:10:38.246Z,3.50
2022-11-10T09:13:07.301Z,2.50
2022-11-10T09:15:37.412Z,2.40
2022-11-10T09:18:07.841Z,2.53
2022-11-10T09:20:37.710Z,2.30
2022-11-10T09:23:06.858Z,2.40
2022-11-10T09:25:37.972Z,3.03
2022-11-10T09:28:08.908Z,2.50
2022-11-10T09:30:41.402Z,2.77
2022-11-10T09:33:10.216Z,3.03
2022-11-10T09:35:38.381Z,2.70
2022-11-10T09:38:06.600Z,2.60
2022-11-10T09:40:48.426Z,3.13
2022-11-10T09:43:21.820Z,3.63
2022-11-10T09:45:55.615Z,3.00
2022-11-10T09:48:27.430Z,2.97
2022-11-10T09:51:00.104Z,2.40
2022-11-10T09:53:34.025Z,2.73
2022-11-10T09:56:04.888Z,2.67
2022-11-10T09:58:38.819Z,3.00
2022-11-10T10:01:24.206Z,2.67
2022-11-10T10:04:04.452Z,2.83
2022-11-10T10:07:04.893Z,2.40
2022-11-10T10:09:40.979Z,2.30
2022-11-10T10:12:23.470Z,2.87
2022-11-10T10:15:13.276Z,2.07
2022-11-10T10:17:54.442Z,2.60
2022-11-10T10:20:33.079Z,2.47
2022-11-10T10:23:17.220Z,2.40
2022-11-10T10:25:47.193Z,2.40
2022-11-10T10:28:22.212Z,2.63
2022-11-10T10:30:50.525Z,2.07
2022-11-10T10:33:22.049Z,2.63
2022-11-10T10:35:52.139Z,2.77
2022-11-10T10:38:26.273Z,2.50
2022-11-10T10:40:58.838Z,3.40
2022-11-10T10:43:27.235Z,2.37
2022-11-10T10:46:07.319Z,2.60
2022-11-10T10:48:36.956Z,2.50
2022-11-10T10:51:05.727Z,2.90
2022-11-10T10:53:34.235Z,2.60
2022-11-10T10:56:06.835Z,2.43
2022-11-10T10:58:51.127Z,3.23
2022-11-10T11:01:27.117Z,2.53
2022-11-10T11:03:56.819Z,3.10
2022-11-10T11:06:27.721Z,2.60
2022-11-10T11:09:01.699Z,2.40
2022-11-10T11:11:32.623Z,2.83
2022-11-10T11:14:20.116Z,2.67
2022-11-10T11:16:50.316Z,2.83
2022-11-10T11:19:22.928Z,3.13
2022-11-10T11:22:26.727Z,2.20
2022-11-10T11:24:59.592Z,2.33
2022-11-10T11:27:36.280Z,2.30
2022-11-10T11:30:12.319Z,2.90
2022-11-10T11:33:13.760Z,2.77
2022-11-10T11:35:50.980Z,2.50
2022-11-10T11:38:33.378Z,2.53
2022-11-10T11:41:17.350Z,2.43
2022-11-10T11:44:13.099Z,2.57
2022-11-10T11:46:49.379Z,3.20
2022-11-10T11:49:51.240Z,2.60
2022-11-10T11:52:29.731Z,2.63
2022-11-10T11:55:17.696Z,2.63
2022-11-10T11:57:57.655Z,1.93
2022-11-10T12:00:25.918Z,2.17
2022-11-10T12:03:11.623Z,2.30
2022-11-10T12:05:54.756Z,2.87
2022-11-10T12:08:38.890Z,2.50
2022-11-10T12:11:15.542Z,3.13
2022-11-10T12:13:56.445Z,3.00
2022-11-10T12:16:28.733Z,2.53
2022-11-10T12:19:06.089Z,2.70
2022-11-10T12:21:44.082Z,2.73
2022-11-10T12:24:35.659Z,2.50
2022-11-10T12:27:14.081Z,2.90
2022-11-10T12:29:46.337Z,2.33
2022-11-10T12:32:21.849Z,2.47
2022-11-10T12:34:55.580Z,2.97
2022-11-10T12:37:30.366Z,2.93
2022-11-10T12:40:06.781Z,2.20
2022-11-10T12:42:38.595Z,2.73
2022-11-10T12:45:09.117Z,2.73
2022-11-10T12:47:44.168Z,2.43
2022-11-10T12:50:29.336Z,3.33
2022-11-10T12:53:02.976Z,2.67
2022-11-10T12:55:40.742Z,2.43
2022-11-10T12:58:13.257Z,2.63
2022-11-10T13:00:44.738Z,2.87
2022-11-10T13:03:25.701Z,2.83
2022-11-10T13:05:58.506Z,3.13
2022-11-10T13:08:33.235Z,2.77
2022-11-10T13:11:07.455Z,3.00
2022-11-10T13:13:45.945Z,2.40
2022-11-10T13:16:49.724Z,2.70
2022-11-10T13:19:52.125Z,3.03
2022-11-10T13:22:37.536Z,2.00
2022-11-10T13:25:43.616Z,2.87
2022-11-10T13:28:13.469Z,2.57
2022-11-10T13:30:45.729Z,2.90
2022-11-10T13:33:38.615Z,2.73
2022-11-10T13:36:09.171Z,2.23
2022-11-10T13:38:40.244Z,1.80
2022-11-10T13:41:21.191Z,2.27
2022-11-10T13:43:53.458Z,2.03
2022-11-10T13:46:32.456Z,2.40
2022-11-10T13:49:28.365Z,2.30
2022-11-10T13:52:07.217Z,2.40
2022-11-10T13:55:00.973Z,2.70
2022-11-10T13:57:32.977Z,2.27
2022-11-10T14:00:09.215Z,2.23
2022-11-10T14:02:52.529Z,1.70
2022-11-10T14:06:05.760Z,2.00
2022-11-10T14:08:42.391Z,2.00
2022-11-10T14:11:22.458Z,1.87
2022-11-10T14:13:57.800Z,1.47
2022-11-10T14:16:31.866Z,1.60
2022-11-10T14:19:05.887Z,1.40
2022-11-10T14:21:40.337Z,1.97
2022-11-10T14:24:23.726Z,2.00
2022-11-10T14:26:55.563Z,2.17
2022-11-10T14:29:31.723Z,1.40
2022-11-10T14:32:05.406Z,1.53
2022-11-10T14:34:43.646Z,1.87
2022-11-10T14:37:24.719Z,1.50
2022-11-10T14:39:56.285Z,1.77
2022-11-10T14:42:26.614Z,2.30
2022-11-10T14:45:07.917Z,1.27
2022-11-10T14:47:38.009Z,1.80
2022-11-10T14:50:20.511Z,1.93
2022-11-10T14:52:52.261Z,2.00
2022-11-10T14:55:24.832Z,1.80
2022-11-10T14:57:56.199Z,1.93
2022-11-10T15:00:26.875Z,1.50
2022-11-10T15:02:59.731Z,2.23
2022-11-10T15:05:31.159Z,2.03
2022-11-10T15:07:59.902Z,2.03
2022-11-10T15:10:43.701Z,4.27
2022-11-10T15:13:21.367Z,2.23
2022-11-10T15:15:49.843Z,2.17
2022-11-10T15:18:28.229Z,2.97
2022-11-10T15:21:02.854Z,2.50
2022-11-10T15:23:34.094Z,2.27
2022-11-10T15:26:02.849Z,2.13
2022-11-10T15:28:33.314Z,2.70
2022-11-10T15:31:05.556Z,2.80
2022-11-10T15:33:37.410Z,3.17
2022-11-10T15:36:17.055Z,2.90
2022-11-10T15:38:45.566Z,3.40
2022-11-10T15:41:16.722Z,2.70
2022-11-10T15:43:44.803Z,2.40
2022-11-10T15:46:18.382Z,2.63
2022-11-10T15:48:50.258Z,3.80
2022-11-10T15:51:25.823Z,2.97
2022-11-10T15:53:54.966Z,2.97
2022-11-10T15:56:25.019Z,2.80
2022-11-10T15:59:00.709Z,2.90
2022-11-10T16:01:31.721Z,3.03
2022-11-10T16:04:01.435Z,2.67
2022-11-10T16:06:30.675Z,2.63
2022-11-10T16:08:59.199Z,2.30
2022-11-10T16:11:31.586Z,2.50
2022-11-10T16:14:00.018Z,2.30
2022-11-10T16:16:28.463Z,2.57
2022-11-10T16:18:56.502Z,2.23
2022-11-10T16:21:27.197Z,2.67
2022-11-10T16:23:55.318Z,2.30
2022-11-10T16:26:27.010Z,2.63
2022-11-10T16:28:55.243Z,1.90
2022-11-10T16:31:24.048Z,2.10
2022-11-10T16:33:52.320Z,2.23
2022-11-10T16:36:27.880Z,2.70
2022-11-10T16:38:56.741Z,2.50
2022-11-10T16:41:24.981Z,3.37
2022-11-10T16:43:53.225Z,2.90
2022-11-10T16:46:24.027Z,3.57
2022-11-10T16:48:54.487Z,2.63
2022-11-10T16:51:31.017Z,3.20
2022-11-10T16:53:59.874Z,3.33
2022-11-10T16:56:28.341Z,2.83
2022-11-10T16:58:56.496Z,3.03
2022-11-10T17:01:27.848Z,2.97
2022-11-10T17:03:58.573Z,7.47
2022-11-10T17:06:30.562Z,3.43
2022-11-10T17:09:04.204Z,3.30
2022-11-10T17:11:32.370Z,2.80
2022-11-10T17:14:00.726Z,2.83
2022-11-10T17:16:32.867Z,3.20
2022-11-10T17:19:02.855Z,3.73
2022-11-10T17:21:35.851Z,3.00
2022-11-10T17:24:04.886Z,2.97
2022-11-10T17:26:33.049Z,5.37
2022-11-10T17:29:01.208Z,3.13
2022-11-10T17:31:29.506Z,3.63
2022-11-10T17:33:57.883Z,3.03
2022-11-10T17:36:26.287Z,2.57
2022-11-10T17:38:56.043Z,2.80
2022-11-10T17:41:24.386Z,2.70
2022-11-10T17:43:52.670Z,3.63
2022-11-10T17:46:21.036Z,2.60
2022-11-10T17:48:50.595Z,2.80
2022-11-10T17:51:20.837Z,2.70
2022-11-10T17:53:50.797Z,3.17
2022-11-10T17:56:23.643Z,2.97
2022-11-10T17:58:53.769Z,3.20
2022-11-10T18:01:23.070Z,3.43
2022-11-10T18:03:57.578Z,3.17
2022-11-10T18:06:25.713Z,2.83
2022-11-10T18:08:53.960Z,3.33
2022-11-10T18:11:26.678Z,3.17
2022-11-10T18:13:54.961Z,3.43
2022-11-10T18:16:23.683Z,3.10
2022-11-10T18:18:52.013Z,3.33
2022-11-10T18:21:21.950Z,3.97
2022-11-10T18:23:50.008Z,3.43
2022-11-10T18:26:18.269Z,3.10
2022-11-10T18:28:50.122Z,3.67
2022-11-10T18:31:19.243Z,3.60
2022-11-10T18:33:51.161Z,3.67
2022-11-10T18:36:19.383Z,3.03
2022-11-10T18:38:47.567Z,3.40
2022-11-10T18:41:33.451Z,3.83
2022-11-10T18:44:03.066Z,3.20
2022-11-10T18:46:31.287Z,4.17
2022-11-10T18:48:59.530Z,3.50
2022-11-10T18:51:27.753Z,3.50
2022-11-10T18:53:56.328Z,6.00
2022-11-10T18:56:24.402Z,3.40
2022-11-10T18:58:56.871Z,4.40
2022-11-10T19:01:27.235Z,3.53
2022-11-10T19:03:56.175Z,3.63
2022-11-10T19:06:24.696Z,3.97
2022-11-10T19:08:52.926Z,3.00
2022-11-10T19:11:21.524Z,3.70
2022-11-10T19:13:50.170Z,3.00
2022-11-10T19:16:20.165Z,3.07
2022-11-10T19:18:49.979Z,3.00
2022-11-10T19:21:20.720Z,3.40
2022-11-10T19:23:49.390Z,3.57
2022-11-10T19:26:22.557Z,3.80
2022-11-10T19:28:53.490Z,3.40
2022-11-10T19:31:23.124Z,2.67
2022-11-10T19:33:54.887Z,4.07
2022-11-10T19:36:24.558Z,3.53
2022-11-10T19:38:54.474Z,3.80
2022-11-10T19:41:24.124Z,4.00
2022-11-10T19:43:52.587Z,3.43
2022-11-10T19:46:23.424Z,3.57
2022-11-10T19:48:53.059Z,4.43
2022-11-10T19:51:22.948Z,4.27
2022-11-10T19:53:58.562Z,4.43
2022-11-10T19:56:31.490Z,3.90
2022-11-10T19:59:00.377Z,4.00
2022-11-10T20:01:29.176Z,4.47
2022-11-10T20:04:01.128Z,3.80
2022-11-10T20:06:30.352Z,3.80
2022-11-10T20:08:58.455Z,3.50
2022-11-10T20:11:27.815Z,3.50
2022-11-10T20:13:57.509Z,3.43
2022-11-10T20:16:25.585Z,4.23
2022-11-10T20:18:53.910Z,4.13
2022-11-10T20:21:24.192Z,4.10
2022-11-10T20:23:56.686Z,4.10
2022-11-10T20:26:26.116Z,3.97
2022-11-10T20:28:54.257Z,3.67
2022-11-10T20:31:24.614Z,4.17
2022-11-10T20:33:54.637Z,4.43
2022-11-10T20:36:26.133Z,3.30
2022-11-10T20:38:58.589Z,3.33
2022-11-10T20:41:28.677Z,3.37
2022-11-10T20:43:57.062Z,3.63
2022-11-10T20:46:54.106Z,4.10
2022-11-10T20:49:13.735Z,3.70
2022-11-10T20:51:43.758Z,3.70
2022-11-10T20:54:11.951Z,3.20
2022-11-10T20:56:40.285Z,3.83
2022-11-10T20:59:08.484Z,4.17
2022-11-10T21:01:37.931Z,4.63
2022-11-10T21:04:06.925Z,3.93
2022-11-10T21:06:35.154Z,3.73
2022-11-10T21:09:05.786Z,3.30
2022-11-10T21:11:51.705Z,4.10
2022-11-10T21:14:20.361Z,3.83
2022-11-10T21:16:48.552Z,3.60
2022-11-10T21:19:16.803Z,4.50
2022-11-10T21:21:44.804Z,3.70
2022-11-10T21:24:14.359Z,4.10
2022-11-10T21:26:42.484Z,4.53
2022-11-10T21:29:11.695Z,3.90
2022-11-10T21:31:39.974Z,3.50
2022-11-10T21:34:08.396Z,4.30
2022-11-10T21:36:36.682Z,4.20
2022-11-10T21:39:05.003Z,4.10
2022-11-10T21:41:34.681Z,3.40
2022-11-10T21:44:02.757Z,3.70
2022-11-10T21:46:31.044Z,3.67
2022-11-10T21:49:02.011Z,4.30
2022-11-10T21:51:32.780Z,3.40
2022-11-10T21:54:01.043Z,4.13
2022-11-10T21:56:29.169Z,4.23
2022-11-10T21:58:59.085Z,3.70
2022-11-10T22:01:27.684Z,3.50
2022-11-10T22:03:55.861Z,4.33
2022-11-10T22:06:44.190Z,3.60
2022-11-10T22:09:12.369Z,4.30
2022-11-10T22:11:58.024Z,4.13
2022-11-10T22:14:45.164Z,3.60
2022-11-10T22:17:34.741Z,4.27
2022-11-10T22:20:02.890Z,4.47
2022-11-10T22:22:31.096Z,4.70
2022-11-10T22:24:59.227Z,4.37
2022-11-10T22:27:27.301Z,4.13
2022-11-10T22:29:56.893Z,4.57
2022-11-10T22:32:25.004Z,4.80
2022-11-10T22:34:53.181Z,4.03
2022-11-10T22:37:22.461Z,4.17
2022-11-10T22:40:08.252Z,4.90
2022-11-10T22:42:53.923Z,4.80
2022-11-10T22:45:23.432Z,4.00
2022-11-10T22:48:09.247Z,4.40
2022-11-10T22:50:37.319Z,4.13
2022-11-10T22:53:05.736Z,3.80
2022-11-10T22:55:33.845Z,3.70
2022-11-10T22:58:02.259Z,3.53
2022-11-10T23:00:31.905Z,3.73
2022-11-10T23:02:59.944Z,4.63
2022-11-10T23:05:28.151Z,3.80
2022-11-10T23:07:56.619Z,4.50
2022-11-10T23:10:24.807Z,4.27
2022-11-10T23:12:55.020Z,3.53
2022-11-10T23:15:23.473Z,3.80
2022-11-10T23:17:52.928Z,3.90
2022-11-10T23:20:21.076Z,4.27
2022-11-10T23:22:49.260Z,4.23
2022-11-10T23:25:17.355Z,4.07
2022-11-10T23:27:45.559Z,4.37
2022-11-10T23:30:14.071Z,4.70
2022-11-10T23:32:42.078Z,4.37
2022-11-10T23:35:11.745Z,3.67
2022-11-10T23:37:39.984Z,3.63
2022-11-10T23:40:09.203Z,3.77
2022-11-10T23:42:37.314Z,4.33
2022-11-10T23:45:09.401Z,4.07
2022-11-10T23:47:37.429Z,3.73
2022-11-10T23:50:06.234Z,4.17
2022-11-10T23:52:35.747Z,4.23
2022-11-10T23:55:03.840Z,4.60
2022-11-10T23:57:32.223Z,4.20
